»·PEaware :: ASA2258 KBFI-KPSC

ASA2258 :: KBFI-KPSC

FLIGHT INFORMATION

Flight Status: Arrived
Operator:
Alaska Airlines
More flights by this operator :: More flights under this callsign
Pilot: Andrew J. (13363)
Aircraft: BOEING 737-800
(B738)
More flights by this aircraft type
Origin: KBFI Boeing Field/King Co Intl
United States
Destination: KPSC Tri-Cities
United States
More flights between these airports :: More routes between these airports
Route: +KENT8 YKM PSC
File this flight plan on PilotEdge
Remarks:
Altitude:
(Current/Filed)
21,000ft
Speed:
(Current/Filed)
460kts
Departed: 12-Dec-17 07:34 PM
Arrived: 12-Dec-17 08:11 PM
Distance/Time
Traveled:
152nm/0:37
Distance/Time
To Go:
Arrived

Flight Plot

Page will automatically refresh every two minutes.

Flight plan parsing failed; only flown route is shown


Map Options




Map Legend


Flown Route
Filed Route
Departure Airport
Arrival Airport
Navaid (VOR, NDB)
Fix

Horizontal Profiles

Position Reports

Time Latitude Longitude Heading Altitude Ground
Speed
12-Dec-17 19:21 47.536995 -122.311328 240 28ft 0kts
12-Dec-17 19:22 47.536995 -122.311328 240 28ft 0kts
12-Dec-17 19:23 47.536995 -122.311328 240 28ft 0kts
12-Dec-17 19:24 47.536995 -122.311328 240 28ft 0kts
12-Dec-17 19:25 47.536995 -122.311328 240 28ft 0kts
12-Dec-17 19:26 47.536995 -122.311328 240 28ft 0kts
12-Dec-17 19:27 47.536995 -122.311328 240 28ft 0kts
12-Dec-17 19:28 47.536995 -122.311328 240 28ft 0kts
12-Dec-17 19:29 47.536995 -122.311328 240 28ft 0kts
12-Dec-17 19:30 47.536995 -122.311328 240 28ft 0kts
12-Dec-17 19:31 47.536995 -122.311328 240 28ft 0kts
12-Dec-17 19:32 47.536932 -122.311525 247 28ft 2kts
12-Dec-17 19:33 47.538304 -122.313430 331 28ft 10kts
12-Dec-17 19:34 47.539444 -122.313391 62 28ft 2kts
12-Dec-17 19:35 47.539553 -122.313079 61 28ft 0kts
12-Dec-17 19:36 47.539840 -122.312311 61 28ft 0kts
12-Dec-17 19:37 47.539844 -122.312299 61 28ft 0kts
12-Dec-17 19:38 47.540240 -122.311220 75 28ft 4kts
12-Dec-17 19:39 47.537874 -122.309111 151 28ft 80kts
12-Dec-17 19:40 47.499796 -122.275954 149 2019ft 196kts
12-Dec-17 19:41 47.443032 -122.228481 150 2902ft 264kts
12-Dec-17 19:42 47.397003 -122.157688 115 7323ft 270kts
12-Dec-17 19:43 47.361774 -122.053334 115 10968ft 304kts
12-Dec-17 19:44 47.319053 -121.929123 131 13297ft 350kts
12-Dec-17 19:45 47.260020 -121.820015 130 17278ft 369kts
12-Dec-17 19:46 47.196156 -121.696328 129 20931ft 390kts
12-Dec-17 19:47 47.128375 -121.563592 129 21400ft 428kts
12-Dec-17 19:48 47.056322 -121.421680 129 21403ft 433kts
12-Dec-17 19:49 46.985053 -121.280751 129 21398ft 433kts
12-Dec-17 19:50 46.914171 -121.139500 128 21451ft 432kts
12-Dec-17 19:51 46.847274 -121.005802 128 21533ft 433kts
12-Dec-17 19:52 46.777341 -120.865421 128 21535ft 432kts
12-Dec-17 19:54 46.707001 -120.723037 127 21535ft 432kts
12-Dec-17 19:55 46.640542 -120.588114 127 21394ft 392kts
12-Dec-17 19:56 46.578540 -120.461533 127 19489ft 378kts
12-Dec-17 19:57 46.493908 -120.381124 156 19472ft 367kts
12-Dec-17 19:58 46.403697 -120.314478 157 19067ft 368kts
12-Dec-17 19:59 46.329809 -120.224043 102 17324ft 368kts
12-Dec-17 20:00 46.323582 -120.078783 93 15650ft 357kts
12-Dec-17 20:01 46.316857 -119.937990 93 13947ft 351kts
12-Dec-17 20:02 46.309604 -119.799058 93 12252ft 340kts
12-Dec-17 20:03 46.302536 -119.668310 93 10549ft 316kts
12-Dec-17 20:04 46.295903 -119.549265 93 8887ft 300kts
12-Dec-17 20:05 46.289441 -119.435593 93 7416ft 282kts
12-Dec-17 20:06 46.283849 -119.339771 94 7002ft 246kts
12-Dec-17 20:07 46.319762 -119.261999 44 7011ft 243kts
12-Dec-17 20:08 46.367666 -119.192889 44 6624ft 245kts
12-Dec-17 20:09 46.415942 -119.123939 44 5435ft 244kts
12-Dec-17 20:10 46.463387 -119.056591 44 4285ft 228kts
12-Dec-17 20:11 46.469884 -118.989483 133 3589ft 212kts
12-Dec-17 20:12 46.421724 -118.949937 192 2897ft 208kts
12-Dec-17 20:13 46.370511 -118.969647 198 2606ft 179kts
12-Dec-17 20:14 46.334663 -119.016942 225 2245ft 173kts
12-Dec-17 20:15 46.304081 -119.062257 226 1404ft 137kts
12-Dec-17 20:16 46.278816 -119.099810 226 716ft 129kts
12-Dec-17 20:17 46.260029 -119.127440 217 418ft 20kts
12-Dec-17 20:18 46.258931 -119.123406 66 418ft 11kts
12-Dec-17 20:19 46.260302 -119.118861 67 418ft 13kts
12-Dec-17 20:20 46.261344 -119.115575 66 418ft 0kts
12-Dec-17 20:21 46.261398 -119.115332 72 418ft 4kts
12-Dec-17 20:22 46.262245 -119.112304 64 418ft 10kts
12-Dec-17 20:23 46.263609 -119.106833 70 418ft 13kts
12-Dec-17 20:24 46.261901 -119.105287 159 418ft 7kts
12-Dec-17 20:25 46.260614 -119.104025 74 418ft 5kts
12-Dec-17 20:26 46.260765 -119.103792 338 418ft 0kts
12-Dec-17 20:27 46.260765 -119.103792 338 418ft 0kts
12-Dec-17 20:28 46.260765 -119.103792 338 418ft 0kts

Navigation Log

Ident Type
Flight plan parsing failed, navigation log unavailable